Time;durP1;ratioP1;P1;durP2;ratioP2;P2;SDS_P1;SDS_P2;PMS_P1;PMS_P2;Temp;Humidity;BMP_temperature;BMP_pressure;BME280_temperature;BME280_humidity;BME280_pressure;Samples;Min_cycle;Max_cycle;Signal;HPM_P1;HPM_P2
2022/01/10 00:00:22;;;;;;;41.07;37.57;;;;;;;23.42;34.60;93488.41;7273301;19;137591;-53
2022/01/10 00:02:52;;;;;;;42.97;39.57;;;;;;;23.41;34.54;93486.88;7289979;19;137721;-53
2022/01/10 00:05:18;;;;;;;48.73;44.57;;;;;;;23.42;34.30;93491.06;7292742;19;138061;-54
2022/01/10 00:07:43;;;;;;;44.67;40.80;;;;;;;23.41;34.76;93481.53;7285160;19;139728;-54
2022/01/10 00:10:09;;;;;;;49.33;45.10;;;;;;;23.42;34.69;93491.84;7292663;19;137927;-53
2022/01/10 00:12:35;;;;;;;46.30;42.37;;;;;;;23.41;34.35;93495.63;7278692;19;137667;-55
2022/01/10 00:15:01;;;;;;;55.20;50.40;;;;;;;23.41;34.57;93490.31;7294096;19;137407;-53
2022/01/10 00:17:26;;;;;;;50.00;45.67;;;;;;;23.41;34.83;93484.97;7287815;19;137889;-54
2022/01/10 00:19:52;;;;;;;46.47;42.53;;;;;;;23.41;34.52;93487.63;7289271;19;137731;-53
2022/01/10 00:22:18;;;;;;;46.93;43.00;;;;;;;23.41;34.96;93489.53;7280156;19;138300;-54
2022/01/10 00:24:44;;;;;;;48.10;43.90;;;;;;;23.40;34.64;93488.00;7292668;19;138242;-56
2022/01/10 00:27:10;;;;;;;47.43;43.33;;;;;;;23.40;34.71;93488.75;7287567;19;137587;-52
2022/01/10 00:29:36;;;;;;;47.40;43.40;;;;;;;23.39;34.74;93492.53;7289728;19;137353;-53
2022/01/10 00:32:01;;;;;;;48.37;44.27;;;;;;;23.40;34.64;93488.00;7292653;19;137342;-52
2022/01/10 00:34:27;;;;;;;49.57;45.50;;;;;;;23.40;34.39;93485.31;7278606;19;137583;-53
2022/01/10 00:36:53;;;;;;;48.67;44.67;;;;;;;23.39;34.56;93481.88;7291474;19;137490;-53
2022/01/10 00:39:19;;;;;;;48.53;44.53;;;;;;;23.39;34.78;93483.78;7287422;19;137388;-54
2022/01/10 00:41:45;;;;;;;49.50;45.20;;;;;;;23.39;34.80;93483.78;7291539;19;136933;-54
2022/01/10 00:44:12;;;;;;;48.13;44.03;;;;;;;23.39;34.88;93487.22;7277348;19;137237;-56
2022/01/10 00:46:37;;;;;;;51.63;47.27;;;;;;;23.39;34.69;93489.09;7292370;19;137699;-53
2022/01/10 00:49:03;;;;;;;49.03;44.90;;;;;;;23.38;34.88;93488.34;7284221;19;137302;-56
2022/01/10 00:51:29;;;;;;;48.43;44.43;;;;;;;23.38;34.83;93479.56;7290627;19;137592;-54
2022/01/10 00:53:54;;;;;;;51.90;47.30;;;;;;;23.37;34.37;93480.69;7291431;19;137561;-53
2022/01/10 00:56:21;;;;;;;46.10;42.17;;;;;;;23.39;34.65;93478.44;7277776;19;137179;-53
2022/01/10 00:58:47;;;;;;;45.40;41.60;;;;;;;23.39;34.50;93481.13;7285841;19;138658;-53
2022/01/10 01:01:13;;;;;;;47.60;43.53;;;;;;;23.40;34.54;93477.31;7292244;19;137467;-51
2022/01/10 01:03:39;;;;;;;47.57;43.57;;;;;;;23.39;34.27;93479.22;7288935;19;137548;-54
2022/01/10 01:06:05;;;;;;;46.73;42.80;;;;;;;23.38;34.36;93485.66;7280176;19;138498;-52
2022/01/10 01:08:33;;;;;;;45.97;42.00;;;;;;;23.37;34.60;93476.13;7284400;19;137327;-55
2022/01/10 01:13:51;;;;;;;43.37;39.67;;;;;;;23.39;34.58;93481.13;7289808;19;137935;-52
2022/01/10 01:16:30;;;;;;;44.70;40.90;;;;;;;23.39;34.29;93481.13;7291454;19;137435;-53
2022/01/10 01:24:07;;;;;;;41.50;37.97;;;;;;;23.39;34.08;93467.78;7288520;19;138177;-56
2022/01/10 01:26:39;;;;;;;42.40;38.80;;;;;;;23.38;34.73;93468.91;7289829;19;137796;-54
2022/01/10 01:29:08;;;;;;;43.53;39.87;;;;;;;23.38;34.03;93467.00;7274293;19;138549;-53
2022/01/10 01:31:34;;;;;;;44.40;40.80;;;;;;;23.37;34.31;93462.03;7290816;19;137136;-54
2022/01/10 01:34:00;;;;;;;42.30;38.70;;;;;;;23.38;34.48;93463.56;7290181;19;137920;-54
2022/01/10 01:36:27;;;;;;;41.70;38.17;;;;;;;23.37;34.58;93456.69;7290760;19;138152;-55
2022/01/10 01:38:54;;;;;;;43.60;40.00;;;;;;;23.37;34.64;93467.38;7285006;19;137720;-52
2022/01/10 01:43:47;;;;;;;42.63;38.83;;;;;;;23.37;34.73;93451.38;7289829;19;137712;-55
2022/01/10 01:46:13;;;;;;;42.67;39.00;;;;;;;23.37;34.20;93448.72;7288138;19;139473;-53
2022/01/10 01:48:39;;;;;;;41.53;38.10;;;;;;;23.36;34.06;93450.59;7283028;19;137360;-53
2022/01/10 01:51:05;;;;;;;42.30;38.70;;;;;;;23.38;34.33;93452.91;7277585;19;138239;-53
2022/01/10 01:53:31;;;;;;;42.47;38.87;;;;;;;23.36;34.57;93452.50;7290300;19;137959;-54
2022/01/10 01:55:58;;;;;;;41.30;37.80;;;;;;;23.36;34.16;93444.50;7288941;19;137644;-54
2022/01/10 01:58:25;;;;;;;39.67;36.30;;;;;;;23.35;34.14;93448.28;7284422;19;137295;-54
2022/01/10 02:00:51;;;;;;;39.87;36.50;;;;;;;23.36;33.97;93452.50;7290814;19;137422;-55
2022/01/10 02:03:16;;;;;;;42.70;39.00;;;;;;;23.36;34.05;93447.16;7273973;19;137318;-56
2022/01/10 02:05:42;;;;;;;37.93;34.73;;;;;;;23.36;34.53;93452.50;7290510;19;139470;-57
2022/01/10 02:08:09;;;;;;;40.77;37.17;;;;;;;23.35;33.95;93453.63;7284162;19;137447;-55
2022/01/10 02:10:35;;;;;;;37.73;34.57;;;;;;;23.36;34.19;93452.50;7288321;19;137590;-54
2022/01/10 02:13:01;;;;;;;37.67;34.57;;;;;;;23.34;33.97;93442.16;7278434;19;138926;-54
2022/01/10 02:15:47;;;;;;;40.57;37.27;;;;;;;23.36;34.23;93444.50;7291505;19;137548;-54
2022/01/10 02:18:20;;;;;;;40.90;37.50;;;;;;;23.36;33.86;93449.81;7283850;19;137684;-54
2022/01/10 02:20:47;;;;;;;39.17;35.80;;;;;;;23.35;33.93;93448.28;7287547;19;137624;-55
2022/01/10 02:23:13;;;;;;;39.20;35.70;;;;;;;23.34;33.83;93452.03;7277537;19;137356;-50
2022/01/10 02:25:40;;;;;;;38.83;35.43;;;;;;;23.34;34.43;93442.16;7285891;19;137969;-53
2022/01/10 02:28:05;;;;;;;39.20;35.80;;;;;;;23.34;33.87;93438.72;7284035;19;138352;-53
2022/01/10 02:30:31;;;;;;;39.60;36.07;;;;;;;23.33;33.93;93445.94;7289017;19;136843;-51
2022/01/10 02:33:00;;;;;;;37.80;34.57;;;;;;;23.32;34.30;93439.06;7287724;19;137343;-52
2022/01/10 02:35:38;;;;;;;37.67;34.50;;;;;;;23.34;34.33;93446.72;7276663;19;138351;-55
2022/01/10 02:38:04;;;;;;;37.63;34.33;;;;;;;23.34;34.33;93444.03;7283233;19;138012;-55
2022/01/10 02:40:32;;;;;;;37.80;34.70;;;;;;;23.33;34.03;93447.81;7287653;19;137886;-56
2022/01/10 02:42:58;;;;;;;36.40;33.20;;;;;;;23.34;34.23;93449.38;7288642;19;137696;-56
2022/01/10 02:45:23;;;;;;;34.83;31.97;;;;;;;23.34;33.87;93452.81;7276125;19;137598;-56
2022/01/10 02:47:50;;;;;;;35.87;32.73;;;;;;;23.34;34.49;93452.81;7281284;19;138263;-56
2022/01/10 02:50:17;;;;;;;34.50;31.50;;;;;;;23.33;33.93;93453.94;7289365;19;137590;-54
2022/01/10 02:52:43;;;;;;;34.87;31.90;;;;;;;23.34;34.36;93452.03;7289064;19;137089;-55
2022/01/10 02:55:10;;;;;;;35.23;32.27;;;;;;;23.33;34.43;93453.94;7287290;19;137546;-54
2022/01/10 02:57:36;;;;;;;32.93;30.20;;;;;;;23.33;34.32;93455.81;7270920;19;140037;-56
2022/01/10 03:00:13;;;;;;;32.27;29.57;;;;;;;23.33;34.26;93455.81;7289032;19;137586;-54
2022/01/10 03:02:41;;;;;;;33.77;30.80;;;;;;;23.32;33.96;93460.38;7287397;19;137776;-54
2022/01/10 03:05:07;;;;;;;31.67;29.03;;;;;;;23.32;34.42;93452.38;7288669;19;138082;-54
2022/01/10 03:07:33;;;;;;;32.20;29.50;;;;;;;23.32;33.88;93455.06;7269527;19;138677;-53
2022/01/10 03:09:59;;;;;;;33.47;30.57;;;;;;;23.33;33.80;93461.16;7286169;19;137096;-56
2022/01/10 03:12:25;;;;;;;32.17;29.40;;;;;;;23.32;34.05;93456.94;7287596;19;137626;-54
2022/01/10 03:14:50;;;;;;;32.13;29.40;;;;;;;23.31;34.47;93461.50;7288739;19;137380;-55
2022/01/10 03:17:16;;;;;;;31.47;28.97;;;;;;;23.33;34.16;93463.81;7282070;19;138785;-56
2022/01/10 03:19:43;;;;;;;30.37;27.87;;;;;;;23.33;34.33;93458.50;7271091;19;137150;-56
2022/01/10 03:22:09;;;;;;;29.80;27.33;;;;;;;23.32;34.11;93462.28;7289378;19;137767;-55
2022/01/10 03:24:35;;;;;;;29.70;27.20;;;;;;;23.32;34.16;93459.59;7284468;19;137791;-50
2022/01/10 03:27:02;;;;;;;29.30;26.83;;;;;;;23.31;33.82;93452.75;7284890;19;137379;-53
2022/01/10 03:29:28;;;;;;;29.53;27.00;;;;;;;23.31;34.57;93455.41;7272037;19;137489;-55
2022/01/10 03:31:53;;;;;;;28.53;26.23;;;;;;;23.32;34.40;93467.59;7286062;19;137204;-55
2022/01/10 03:34:19;;;;;;;29.33;26.83;;;;;;;23.32;34.07;93467.59;7285566;19;139287;-52
2022/01/10 03:36:45;;;;;;;28.53;26.20;;;;;;;23.31;33.77;93458.84;7286071;19;136895;-54
2022/01/10 03:39:12;;;;;;;27.80;25.50;;;;;;;23.31;34.32;93460.72;7280902;19;137639;-52
2022/01/10 03:41:38;;;;;;;28.07;25.77;;;;;;;23.32;34.03;93467.59;7274922;19;137527;-55
2022/01/10 03:44:04;;;;;;;27.03;24.80;;;;;;;23.33;34.32;93469.16;7286203;19;138881;-54
2022/01/10 03:46:32;;;;;;;27.30;25.07;;;;;;;23.32;33.95;93467.59;7287115;19;137394;-55
2022/01/10 03:49:02;;;;;;;27.10;24.80;;;;;;;23.34;33.85;93468.03;7281342;19;136881;-54
2022/01/10 03:51:28;;;;;;;26.77;24.57;;;;;;;23.35;33.80;93466.94;7274912;19;137055;-55
2022/01/10 03:53:53;;;;;;;26.00;23.90;;;;;;;23.33;34.34;93469.94;7285007;19;137861;-53
2022/01/10 03:56:20;;;;;;;28.33;25.87;;;;;;;23.33;33.99;93472.59;7286890;19;137877;-53
2022/01/10 03:58:46;;;;;;;27.10;24.90;;;;;;;23.34;33.75;93476.03;7281233;19;137878;-53
2022/01/10 04:01:12;;;;;;;25.13;22.97;;;;;;;23.35;33.55;93480.25;7286283;19;137386;-55
2022/01/10 04:03:38;;;;;;;25.80;23.70;;;;;;;23.35;34.24;93491.69;7271766;19;138193;-55
2022/01/10 04:06:05;;;;;;;25.40;23.20;;;;;;;23.34;33.96;93487.47;7284248;19;138455;-55
2022/01/10 04:08:32;;;;;;;24.80;22.70;;;;;;;23.33;33.93;93488.56;7279949;19;138522;-51
2022/01/10 04:10:58;;;;;;;23.30;21.40;;;;;;;23.34;33.84;93495.44;7285230;19;139304;-53
2022/01/10 04:13:23;;;;;;;22.03;20.13;;;;;;;23.36;33.93;93487.91;7275686;19;139497;-53
2022/01/10 04:15:50;;;;;;;19.80;18.10;;;;;;;23.37;33.84;93488.69;7285842;19;137473;-49
2022/01/10 04:18:15;;;;;;;16.33;14.83;;;;;;;23.26;34.13;93491.09;7281377;19;137261;-53
2022/01/10 04:20:46;;;;;;;13.23;12.07;;;;;;;23.06;33.52;93490.22;7283374;19;137598;-55
2022/01/10 04:23:13;;;;;;;9.43;8.60;;;;;;;22.96;33.12;93485.41;7285109;19;137624;-56
2022/01/10 04:25:39;;;;;;;7.90;7.07;;;;;;;22.86;33.60;93496.56;7273412;19;139211;-55
2022/01/10 04:28:04;;;;;;;5.80;5.30;;;;;;;22.77;33.14;93496.69;7281469;19;138989;-57
2022/01/10 04:30:30;;;;;;;6.23;5.70;;;;;;;22.64;33.25;93497.09;7284642;19;137659;-56
2022/01/10 04:33:00;;;;;;;4.83;4.43;;;;;;;22.54;32.83;93508.22;7285816;19;138107;-56
2022/01/10 04:35:27;;;;;;;3.83;3.27;;;;;;;22.28;33.23;93509.41;7274363;19;137662;-55
2022/01/10 04:37:52;;;;;;;4.20;3.80;;;;;;;22.05;33.14;93516.38;7280251;19;140126;-51
2022/01/10 04:40:18;;;;;;;4.13;3.73;;;;;;;22.36;33.26;93521.06;7284474;19;137885;-54
2022/01/10 04:42:44;;;;;;;5.27;4.10;;;;;;;22.37;32.88;93526.03;7286362;19;137176;-54
2022/01/10 04:45:10;;;;;;;4.27;3.40;;;;;;;22.21;33.46;93519.88;7283139;19;137785;-56
2022/01/10 04:47:36;;;;;;;3.43;3.13;;;;;;;22.18;34.03;93523.22;7271689;19;138283;-56
2022/01/10 04:50:29;;;;;;;5.60;3.33;;;;;;;22.34;34.04;93520.59;7289286;19;137466;-57
2022/01/10 04:52:50;;;;;;;5.33;4.30;;;;;;;22.62;35.75;93520.59;7291934;19;138032;-55
2022/01/10 04:55:16;;;;;;;5.80;5.20;;;;;;;22.92;37.07;93519.16;7289738;19;137689;-53
2022/01/10 04:57:42;;;;;;;6.30;5.80;;;;;;;23.10;36.12;93520.38;7275650;19;139661;-51
2022/01/10 05:00:10;;;;;;;8.00;7.30;;;;;;;23.24;36.08;93519.97;7290027;19;137338;-53
2022/01/10 05:02:36;;;;;;;7.80;7.10;;;;;;;23.35;35.36;93522.91;7290915;19;138051;-52
2022/01/10 05:05:03;;;;;;;9.20;8.30;;;;;;;23.44;35.64;93525.38;7290149;19;137073;-53
2022/01/10 05:07:28;;;;;;;8.47;7.77;;;;;;;23.52;35.64;93525.22;7288796;19;137334;-55
2022/01/10 05:09:54;;;;;;;9.90;8.90;;;;;;;23.59;36.18;93528.06;7275830;19;137275;-58
2022/01/10 05:12:22;;;;;;;9.47;7.90;;;;;;;23.69;36.99;93526.78;7292463;19;137183;-58
2022/01/10 05:14:48;;;;;;;9.20;8.33;;;;;;;23.70;37.04;93529.09;7292291;19;137960;-55
2022/01/10 05:17:13;;;;;;;10.83;9.80;;;;;;;23.74;37.00;93533.72;7295694;19;139137;-58
2022/01/10 05:19:39;;;;;;;11.10;10.00;;;;;;;23.71;37.29;93540.53;7288718;19;139596;-57
2022/01/10 05:22:04;;;;;;;10.43;9.33;;;;;;;23.67;36.78;93535.09;7297850;19;138984;-59
2022/01/10 05:24:30;;;;;;;10.70;9.63;;;;;;;23.62;36.92;93537.25;7295175;19;136961;-61
2022/01/10 05:26:55;;;;;;;10.97;9.90;;;;;;;23.63;37.25;93544.91;7298897;19;137231;-58
2022/01/10 05:29:21;;;;;;;11.00;9.67;;;;;;;23.62;37.27;93551.38;7298243;19;136880;-59
2022/01/10 05:31:46;;;;;;;9.77;9.00;;;;;;;23.60;36.41;93548.28;7285734;19;136986;-59
2022/01/10 05:34:12;;;;;;;10.73;9.13;;;;;;;23.57;36.09;93548.97;7298519;19;137117;-59
2022/01/10 05:36:37;;;;;;;10.20;9.30;;;;;;;23.54;36.03;93549.63;7298017;19;136872;-61
2022/01/10 05:39:03;;;;;;;9.63;8.73;;;;;;;23.49;36.33;93546.44;7298716;19;137303;-59
2022/01/10 05:41:29;;;;;;;10.43;9.43;;;;;;;23.46;36.21;93555.13;7288064;19;137494;-56
2022/01/10 05:43:55;;;;;;;12.83;11.63;;;;;;;23.44;36.53;93560.03;7288551;19;137264;-56
2022/01/10 05:46:21;;;;;;;11.60;10.60;;;;;;;23.42;36.03;93561.16;7297355;19;137797;-57
2022/01/10 05:48:49;;;;;;;12.53;11.43;;;;;;;23.42;35.85;93555.03;7295662;19;137379;-53
2022/01/10 05:51:15;;;;;;;11.47;10.37;;;;;;;23.40;36.50;93565.28;7293018;19;137464;-57
2022/01/10 05:53:42;;;;;;;11.53;10.53;;;;;;;23.42;35.92;93566.47;7280914;19;137051;-57
2022/01/10 05:56:07;;;;;;;12.73;11.53;;;;;;;23.40;36.17;93554.63;7295271;19;137962;-59
2022/01/10 05:58:33;;;;;;;12.80;11.60;;;;;;;23.44;35.95;93562.69;7297352;19;136949;-56
2022/01/10 06:00:58;;;;;;;12.40;11.30;;;;;;;23.44;35.69;93565.38;7297037;19;136948;-58
2022/01/10 06:03:24;;;;;;;12.00;11.00;;;;;;;23.44;35.38;93573.34;7295453;19;136776;-53
2022/01/10 06:05:50;;;;;;;12.17;11.17;;;;;;;23.44;35.48;93570.69;7287697;19;138516;-59
2022/01/10 06:08:15;;;;;;;12.63;11.53;;;;;;;23.42;35.40;93571.03;7296793;19;137600;-57
2022/01/10 06:10:41;;;;;;;12.53;11.43;;;;;;;23.42;35.62;93571.03;7297934;19;138269;-60
2022/01/10 06:13:07;;;;;;;13.80;12.70;;;;;;;23.42;35.08;93577.16;7297248;19;136890;-57
2022/01/10 06:15:33;;;;;;;13.03;12.03;;;;;;;23.42;35.24;93563.81;7283496;19;137324;-52
2022/01/10 06:17:59;;;;;;;13.87;12.67;;;;;;;23.42;35.27;93574.47;7297686;19;137327;-57
2022/01/10 06:20:25;;;;;;;13.80;12.57;;;;;;;23.40;35.01;93581.28;7297935;19;137804;-59
2022/01/10 06:22:51;;;;;;;12.43;11.50;;;;;;;23.41;34.81;93583.59;7297181;19;137458;-53
2022/01/10 06:25:20;;;;;;;13.57;12.30;;;;;;;23.40;34.95;93579.38;7295431;19;136779;-53
2022/01/10 06:27:46;;;;;;;12.60;11.43;;;;;;;23.42;35.72;93581.69;7283502;19;138065;-58
2022/01/10 06:30:12;;;;;;;13.63;12.30;;;;;;;23.42;35.68;93584.38;7296152;19;138583;-59
2022/01/10 06:32:37;;;;;;;12.73;11.73;;;;;;;23.41;35.69;93585.50;7297327;19;137687;-59
2022/01/10 06:35:03;;;;;;;12.57;11.60;;;;;;;23.41;35.03;93582.81;7296836;19;137088;-59
2022/01/10 06:37:29;;;;;;;12.70;11.70;;;;;;;23.42;34.97;93592.38;7281858;19;137414;-56
2022/01/10 06:39:54;;;;;;;12.90;11.90;;;;;;;23.42;35.27;93592.38;7297134;19;138219;-57
2022/01/10 06:42:20;;;;;;;12.93;11.87;;;;;;;23.41;35.45;93596.16;7295812;19;138966;-58
2022/01/10 06:44:46;;;;;;;12.30;11.27;;;;;;;23.41;35.12;93596.16;7295174;19;138190;-56
2022/01/10 06:47:12;;;;;;;12.30;11.30;;;;;;;23.40;34.89;93600.72;7297279;19;137504;-59
2022/01/10 06:49:38;;;;;;;11.80;10.87;;;;;;;23.41;34.97;93599.59;7283654;19;137777;-59
2022/01/10 06:52:04;;;;;;;15.33;11.80;;;;;;;23.42;34.73;93598.47;7295506;19;137508;-50
2022/01/10 06:54:30;;;;;;;11.77;10.80;;;;;;;23.41;35.41;93604.16;7296511;19;136844;-56
2022/01/10 06:56:58;;;;;;;11.73;10.70;;;;;;;23.44;35.37;93600.78;7296712;19;137577;-59
2022/01/10 06:59:25;;;;;;;11.40;10.40;;;;;;;23.47;34.61;93605.44;7282145;19;137454;-59
2022/01/10 07:01:52;;;;;;;11.83;10.87;;;;;;;23.49;34.85;93603.19;7295940;19;137065;-55
2022/01/10 07:04:18;;;;;;;11.90;10.93;;;;;;;23.50;34.65;93603.97;7294492;19;138049;-58
2022/01/10 07:06:43;;;;;;;10.43;9.60;;;;;;;23.49;34.55;93610.41;7295736;19;136903;-60
2022/01/10 07:09:09;;;;;;;10.53;9.73;;;;;;;23.46;35.34;93609.22;7296207;19;137071;-59
2022/01/10 07:11:34;;;;;;;9.87;9.07;;;;;;;23.45;35.34;93607.66;7280350;19;137354;-60
2022/01/10 07:14:00;;;;;;;10.33;9.53;;;;;;;23.44;34.78;93616.00;7294910;19;138121;-56
2022/01/10 07:16:25;;;;;;;10.90;10.00;;;;;;;23.43;35.32;93612.56;7295960;19;137496;-58
2022/01/10 07:18:51;;;;;;;10.80;9.80;;;;;;;23.44;35.28;93616.00;7295438;19;137350;-59
2022/01/10 07:21:17;;;;;;;10.23;9.33;;;;;;;23.42;35.06;93614.47;7278611;19;137073;-59
2022/01/10 07:23:42;;;;;;;9.50;8.70;;;;;;;23.41;35.21;93612.13;7293535;19;137963;-59
2022/01/10 07:26:08;;;;;;;10.00;9.00;;;;;;;23.42;34.80;93624.34;7295189;19;137024;-60
2022/01/10 07:28:34;;;;;;;9.10;8.40;;;;;;;23.42;34.69;93621.69;7293947;19;137318;-57
2022/01/10 07:30:59;;;;;;;9.00;8.30;;;;;;;23.41;34.54;93628.91;7295274;19;138630;-62
2022/01/10 07:33:25;;;;;;;8.83;8.13;;;;;;;23.41;35.11;93636.13;7281351;19;136963;-58
2022/01/10 07:35:50;;;;;;;8.70;8.00;;;;;;;23.46;34.98;93641.19;7294325;19;137380;-58
2022/01/10 07:38:16;;;;;;;9.20;8.50;;;;;;;23.48;35.04;93638.19;7294490;19;136962;-58
2022/01/10 07:40:41;;;;;;;12.00;8.17;;;;;;;23.48;34.67;93643.53;7293068;19;137006;-59
2022/01/10 07:43:07;;;;;;;8.93;8.23;;;;;;;23.49;34.77;93647.75;7281071;19;137060;-58
2022/01/10 07:45:32;;;;;;;8.70;8.00;;;;;;;23.48;34.36;93646.97;7292424;19;137053;-52
2022/01/10 07:47:58;;;;;;;8.23;7.63;;;;;;;23.48;35.03;93648.84;7295235;19;137429;-59
2022/01/10 07:50:24;;;;;;;8.60;7.93;;;;;;;23.47;35.00;93653.41;7294076;19;136837;-59
2022/01/10 07:52:50;;;;;;;8.13;7.43;;;;;;;23.45;34.89;93644.97;7295214;19;136885;-60
2022/01/10 07:55:16;;;;;;;7.87;7.17;;;;;;;23.44;34.77;93646.09;7282113;19;137626;-59
2022/01/10 07:57:41;;;;;;;8.00;7.37;;;;;;;23.44;35.02;93654.09;7291752;19;137410;-58
2022/01/10 08:00:08;;;;;;;7.80;7.20;;;;;;;23.44;34.75;93648.00;7293542;19;136817;-58
2022/01/10 08:02:33;;;;;;;8.00;7.37;;;;;;;23.42;34.94;93648.34;7293226;19;136994;-53
2022/01/10 08:04:59;;;;;;;7.93;7.13;;;;;;;23.42;34.99;93649.13;7277814;19;137470;-60
2022/01/10 08:07:24;;;;;;;7.70;7.20;;;;;;;23.42;34.45;93649.13;7294021;19;138152;-60
2022/01/10 08:09:50;;;;;;;7.10;6.60;;;;;;;23.42;34.63;93653.66;7294503;19;137312;-59
2022/01/10 08:12:15;;;;;;;7.00;6.40;;;;;;;23.41;34.49;93647.56;7293016;19;136948;-57
2022/01/10 08:14:41;;;;;;;7.20;6.70;;;;;;;23.42;34.29;93651.00;7293429;19;137164;-59
2022/01/10 08:17:07;;;;;;;6.67;6.07;;;;;;;23.43;34.21;93657.88;7280821;19;138017;-58
2022/01/10 08:19:34;;;;;;;6.60;6.10;;;;;;;23.42;34.77;93649.13;7291453;19;136758;-50
2022/01/10 08:22:00;;;;;;;6.17;5.67;;;;;;;23.41;34.69;93650.22;7293647;19;136832;-59
2022/01/10 08:24:27;;;;;;;7.10;6.50;;;;;;;23.42;34.61;93646.44;7299519;19;137209;-59
2022/01/10 08:26:53;;;;;;;6.40;5.90;;;;;;;23.44;34.21;93653.31;7285438;19;137698;-60
2022/01/10 08:29:19;;;;;;;7.10;6.50;;;;;;;23.51;34.15;93656.16;7300287;19;137775;-56
2022/01/10 08:31:45;;;;;;;6.83;6.33;;;;;;;23.55;34.56;93657.81;7300314;19;137476;-56
2022/01/10 08:34:11;;;;;;;7.47;6.77;;;;;;;23.54;34.67;93658.16;7299743;19;137314;-57
2022/01/10 08:36:36;;;;;;;6.60;6.10;;;;;;;23.59;34.22;93656.03;7300658;19;137475;-56
2022/01/10 08:39:04;;;;;;;7.13;6.30;;;;;;;23.61;34.58;93664.47;7287257;19;138312;-59
2022/01/10 08:41:29;;;;;;;6.33;5.83;;;;;;;23.61;34.40;93664.47;7298895;19;136884;-59
2022/01/10 08:43:55;;;;;;;6.30;5.80;;;;;;;23.62;34.23;93658.03;7299128;19;137245;-57
2022/01/10 08:46:22;;;;;;;6.37;5.77;;;;;;;23.63;34.73;93661.47;7299744;19;137872;-57
2022/01/10 08:48:48;;;;;;;6.87;6.27;;;;;;;23.65;34.54;93659.22;7284931;19;137759;-54
2022/01/10 08:51:14;;;;;;;6.20;5.70;;;;;;;23.66;34.29;93666.09;7300034;19;137163;-57
2022/01/10 08:53:39;;;;;;;6.70;6.10;;;;;;;23.66;33.88;93666.09;7300494;19;138333;-60
2022/01/10 08:56:05;;;;;;;6.40;5.90;;;;;;;23.67;34.43;93667.66;7300264;19;137593;-56
2022/01/10 08:58:32;;;;;;;6.13;5.70;;;;;;;23.67;33.71;93665.75;7299565;19;138206;-59
2022/01/10 09:01:04;;;;;;;6.07;5.57;;;;;;;23.68;34.05;93669.19;7285458;19;137030;-59
2022/01/10 09:03:30;;;;;;;5.90;5.50;;;;;;;23.68;34.09;93658.53;7298697;19;137425;-59
2022/01/10 09:05:56;;;;;;;6.27;5.60;;;;;;;23.67;33.83;93656.97;7297248;19;137329;-59
2022/01/10 09:08:33;;;;;;;5.27;4.87;;;;;;;23.68;34.16;93664.66;7299699;19;137479;-61
2022/01/10 09:11:00;;;;;;;6.63;6.13;;;;;;;23.68;33.58;93670.00;7285781;19;137203;-52
2022/01/10 09:13:27;;;;;;;7.67;6.97;;;;;;;23.62;34.09;93670.59;7299635;19;137913;-52
2022/01/10 09:15:53;;;;;;;6.33;5.93;;;;;;;23.58;33.87;93675.06;7298889;19;137569;-53
2022/01/10 09:18:19;;;;;;;7.40;6.80;;;;;;;23.54;34.65;93674.16;7297308;19;138004;-51
2022/01/10 09:20:45;;;;;;;7.47;6.87;;;;;;;23.51;34.04;93664.94;7297903;19;136808;-53
2022/01/10 09:23:11;;;;;;;6.67;6.07;;;;;;;23.52;34.00;93665.75;7286168;19;136896;-53
2022/01/10 09:25:37;;;;;;;6.90;6.30;;;;;;;23.50;34.68;93665.28;7298018;19;138000;-51
2022/01/10 09:28:03;;;;;;;6.97;6.47;;;;;;;23.50;34.24;93671.38;7299367;19;137795;-51
2022/01/10 09:30:29;;;;;;;8.13;7.13;;;;;;;23.49;34.51;93669.06;7298292;19;137046;-50
2022/01/10 09:32:55;;;;;;;9.10;8.40;;;;;;;23.50;34.49;93668.72;7285519;19;137194;-54
2022/01/10 09:35:22;;;;;;;7.80;7.20;;;;;;;23.51;34.48;93670.25;7295739;19;137379;-51
2022/01/10 09:37:48;;;;;;;7.77;7.10;;;;;;;23.52;34.35;93657.75;7298505;19;137121;-53
2022/01/10 09:40:14;;;;;;;7.13;6.63;;;;;;;23.53;33.96;93669.94;7297927;19;136883;-52
2022/01/10 09:42:41;;;;;;;7.93;7.23;;;;;;;23.52;34.21;93666.50;7297200;19;136987;-53
2022/01/10 09:45:08;;;;;;;8.00;7.10;;;;;;;23.51;34.21;93656.94;7283227;19;137183;-52
2022/01/10 09:47:35;;;;;;;9.33;8.53;;;;;;;23.51;34.71;93664.16;7297325;19;136914;-52
2022/01/10 09:50:01;;;;;;;8.23;7.53;;;;;;;23.50;34.41;93660.72;7296789;19;136986;-53
2022/01/10 09:52:27;;;;;;;8.20;7.60;;;;;;;23.50;35.10;93668.72;7298244;19;137428;-52
2022/01/10 09:54:53;;;;;;;8.20;7.60;;;;;;;23.50;35.09;93670.59;7285017;19;137415;-51
2022/01/10 09:57:20;;;;;;;7.77;7.13;;;;;;;23.49;35.15;93672.50;7297663;19;137764;-54
2022/01/10 09:59:47;;;;;;;9.23;8.13;;;;;;;23.50;34.38;93671.38;7298144;19;136875;-53
2022/01/10 10:02:14;;;;;;;11.20;10.20;;;;;;;23.50;35.02;93668.72;7298197;19;137219;-54
2022/01/10 10:04:41;;;;;;;10.67;9.77;;;;;;;23.51;34.24;93666.81;7295957;19;137269;-52
2022/01/10 10:07:07;;;;;;;12.60;11.40;;;;;;;23.49;34.51;93667.16;7283978;19;137584;-52
2022/01/10 10:09:34;;;;;;;11.80;10.83;;;;;;;23.48;34.64;93665.63;7297562;19;137055;-53
2022/01/10 10:12:01;;;;;;;11.73;10.73;;;;;;;23.49;34.22;93669.84;7297713;19;137226;-52
2022/01/10 10:14:27;;;;;;;11.97;11.07;;;;;;;23.49;34.49;93664.50;7297091;19;138046;-51
2022/01/10 10:17:06;;;;;;;12.00;10.90;;;;;;;23.49;34.31;93661.06;7284360;19;137016;-52
2022/01/10 10:19:31;;;;;;;12.50;11.50;;;;;;;23.49;34.75;93666.41;7295335;19;137751;-50
2022/01/10 10:21:59;;;;;;;12.10;11.20;;;;;;;23.49;34.40;93669.06;7297606;19;138087;-50
2022/01/10 10:24:25;;;;;;;12.17;11.13;;;;;;;23.48;34.67;93664.84;7296297;19;137561;-54
2022/01/10 10:26:52;;;;;;;12.30;11.20;;;;;;;23.48;35.00;93665.63;7296836;19;137730;-53
2022/01/10 10:29:19;;;;;;;12.73;11.63;;;;;;;23.47;34.25;93664.06;7283926;19;139046;-54
2022/01/10 10:31:50;;;;;;;13.10;11.97;;;;;;;23.48;34.29;93668.28;7296946;19;137646;-49
2022/01/10 10:34:20;;;;;;;12.77;11.57;;;;;;;23.52;34.57;93663.84;7295928;19;137567;-51
2022/01/10 10:36:57;;;;;;;13.70;12.50;;;;;;;23.64;34.44;93663.78;7297632;19;138125;-56
2022/01/10 10:39:25;;;;;;;11.53;10.63;;;;;;;23.73;34.16;93657.53;7283323;19;138612;-57
2022/01/10 10:41:55;;;;;;;12.23;11.23;;;;;;;23.79;34.43;93656.16;7296188;19;136954;-55
2022/01/10 10:44:21;;;;;;;11.70;10.70;;;;;;;23.81;34.49;93653.91;7296701;19;136982;-57
2022/01/10 10:46:49;;;;;;;11.00;10.17;;;;;;;23.77;34.66;93661.06;7294054;19;136853;-59
2022/01/10 10:49:18;;;;;;;12.10;11.20;;;;;;;23.76;33.80;93662.16;7295331;19;136920;-55
2022/01/10 10:51:47;;;;;;;11.33;10.33;;;;;;;23.75;33.78;93664.06;7283514;19;137830;-59
2022/01/10 10:54:14;;;;;;;11.93;10.93;;;;;;;23.74;34.56;93667.06;7296784;19;137633;-56
2022/01/10 10:56:43;;;;;;;11.17;10.17;;;;;;;23.75;34.26;93668.63;7295586;19;137410;-59
2022/01/10 10:59:10;;;;;;;11.60;10.60;;;;;;;23.74;33.93;93667.06;7294620;19;136797;-56
2022/01/10 11:01:39;;;;;;;11.63;10.63;;;;;;;23.74;34.31;93673.19;7281104;19;138084;-59
2022/01/10 11:04:06;;;;;;;11.53;10.63;;;;;;;23.74;34.10;93673.19;7294828;19;137727;-59
2022/01/10 11:06:33;;;;;;;11.20;10.30;;;;;;;23.74;33.98;93675.06;7296638;19;136811;-56
2022/01/10 11:09:01;;;;;;;10.43;9.63;;;;;;;23.74;34.10;93689.19;7296200;19;136675;-59
2022/01/10 11:11:27;;;;;;;10.60;9.70;;;;;;;23.74;33.98;93681.19;7295390;19;137967;-58
2022/01/10 11:13:56;;;;;;;10.77;9.97;;;;;;;23.73;34.02;93687.63;7282277;19;137149;-56
2022/01/10 11:16:23;;;;;;;11.07;9.90;;;;;;;23.73;33.98;93681.53;7295751;19;136943;-54
2022/01/10 11:18:49;;;;;;;9.60;8.90;;;;;;;23.74;33.71;93688.41;7294466;19;136933;-57
2022/01/10 11:21:16;;;;;;;10.40;9.50;;;;;;;23.75;34.01;93689.97;7293229;19;137054;-59